sensor_id;sensor_type;location;lat;lon;timestamp;P1;durP1;ratioP1;P2;durP2;ratioP2
46230;SDS011;31949;51.404;-0.038;2022-12-18T00:01:24;36.55;;;17.30;;
46230;SDS011;31949;51.404;-0.038;2022-12-18T00:04:03;30.17;;;14.63;;
46230;SDS011;31949;51.404;-0.038;2022-12-18T00:06:32;34.78;;;17.25;;
46230;SDS011;31949;51.404;-0.038;2022-12-18T00:09:01;33.55;;;15.43;;
46230;SDS011;31949;51.404;-0.038;2022-12-18T00:11:30;28.35;;;15.50;;
46230;SDS011;31949;51.404;-0.038;2022-12-18T00:13:58;33.65;;;15.55;;
46230;SDS011;31949;51.404;-0.038;2022-12-18T00:16:26;30.02;;;14.70;;
46230;SDS011;31949;51.404;-0.038;2022-12-18T00:18:56;33.25;;;15.27;;
46230;SDS011;31949;51.404;-0.038;2022-12-18T00:21:24;25.65;;;13.77;;
46230;SDS011;31949;51.404;-0.038;2022-12-18T00:23:53;32.25;;;14.90;;
46230;SDS011;31949;51.404;-0.038;2022-12-18T00:26:24;31.77;;;14.57;;
46230;SDS011;31949;51.404;-0.038;2022-12-18T00:29:00;32.67;;;16.73;;
46230;SDS011;31949;51.404;-0.038;2022-12-18T00:31:31;33.70;;;16.20;;
46230;SDS011;31949;51.404;-0.038;2022-12-18T00:34:00;30.33;;;16.42;;
46230;SDS011;31949;51.404;-0.038;2022-12-18T00:36:28;38.85;;;19.55;;
46230;SDS011;31949;51.404;-0.038;2022-12-18T00:38:58;36.40;;;17.80;;
46230;SDS011;31949;51.404;-0.038;2022-12-18T00:41:27;30.52;;;16.38;;
46230;SDS011;31949;51.404;-0.038;2022-12-18T00:44:14;33.15;;;15.68;;
46230;SDS011;31949;51.404;-0.038;2022-12-18T00:46:42;32.65;;;17.30;;
46230;SDS011;31949;51.404;-0.038;2022-12-18T00:49:10;34.47;;;17.80;;
46230;SDS011;31949;51.404;-0.038;2022-12-18T00:51:38;34.67;;;17.50;;
46230;SDS011;31949;51.404;-0.038;2022-12-18T00:54:05;34.88;;;16.80;;
46230;SDS011;31949;51.404;-0.038;2022-12-18T00:56:34;34.78;;;17.65;;
46230;SDS011;31949;51.404;-0.038;2022-12-18T00:59:14;38.78;;;18.45;;
46230;SDS011;31949;51.404;-0.038;2022-12-18T01:01:41;34.13;;;17.65;;
46230;SDS011;31949;51.404;-0.038;2022-12-18T01:04:09;32.42;;;16.50;;
46230;SDS011;31949;51.404;-0.038;2022-12-18T01:06:36;34.10;;;16.40;;
46230;SDS011;31949;51.404;-0.038;2022-12-18T01:09:04;35.40;;;18.02;;
46230;SDS011;31949;51.404;-0.038;2022-12-18T01:11:31;32.55;;;15.85;;
46230;SDS011;31949;51.404;-0.038;2022-12-18T01:14:00;36.88;;;17.38;;
46230;SDS011;31949;51.404;-0.038;2022-12-18T01:16:27;32.55;;;17.88;;
46230;SDS011;31949;51.404;-0.038;2022-12-18T01:18:55;37.22;;;16.73;;
46230;SDS011;31949;51.404;-0.038;2022-12-18T01:21:25;38.78;;;19.42;;
46230;SDS011;31949;51.404;-0.038;2022-12-18T01:23:53;30.63;;;17.45;;
46230;SDS011;31949;51.404;-0.038;2022-12-18T01:26:22;34.78;;;16.27;;
46230;SDS011;31949;51.404;-0.038;2022-12-18T01:28:53;30.60;;;15.50;;
46230;SDS011;31949;51.404;-0.038;2022-12-18T01:31:23;32.90;;;15.23;;
46230;SDS011;31949;51.404;-0.038;2022-12-18T01:33:55;31.17;;;15.85;;
46230;SDS011;31949;51.404;-0.038;2022-12-18T01:36:23;30.98;;;14.60;;
46230;SDS011;31949;51.404;-0.038;2022-12-18T01:38:53;33.45;;;16.00;;
46230;SDS011;31949;51.404;-0.038;2022-12-18T01:41:22;33.72;;;14.60;;
46230;SDS011;31949;51.404;-0.038;2022-12-18T01:43:53;31.30;;;14.57;;
46230;SDS011;31949;51.404;-0.038;2022-12-18T01:46:22;27.38;;;15.05;;
46230;SDS011;31949;51.404;-0.038;2022-12-18T01:48:51;31.08;;;14.45;;
46230;SDS011;31949;51.404;-0.038;2022-12-18T01:51:28;34.70;;;16.40;;
46230;SDS011;31949;51.404;-0.038;2022-12-18T01:53:57;33.25;;;16.48;;
46230;SDS011;31949;51.404;-0.038;2022-12-18T01:56:26;33.33;;;16.73;;
46230;SDS011;31949;51.404;-0.038;2022-12-18T01:59:03;31.52;;;17.02;;
46230;SDS011;31949;51.404;-0.038;2022-12-18T02:01:32;33.90;;;15.98;;
46230;SDS011;31949;51.404;-0.038;2022-12-18T02:07:44;29.85;;;14.63;;
46230;SDS011;31949;51.404;-0.038;2022-12-18T02:12:24;34.63;;;17.48;;
46230;SDS011;31949;51.404;-0.038;2022-12-18T02:15:06;32.28;;;17.80;;
46230;SDS011;31949;51.404;-0.038;2022-12-18T02:17:47;36.55;;;17.23;;
46230;SDS011;31949;51.404;-0.038;2022-12-18T02:23:26;37.13;;;20.55;;
46230;SDS011;31949;51.404;-0.038;2022-12-18T02:26:17;32.28;;;15.80;;
46230;SDS011;31949;51.404;-0.038;2022-12-18T02:29:11;31.20;;;16.83;;
46230;SDS011;31949;51.404;-0.038;2022-12-18T02:31:45;37.13;;;17.17;;
46230;SDS011;31949;51.404;-0.038;2022-12-18T02:34:18;31.40;;;14.27;;
46230;SDS011;31949;51.404;-0.038;2022-12-18T02:36:48;31.30;;;14.30;;
46230;SDS011;31949;51.404;-0.038;2022-12-18T02:39:18;32.13;;;16.00;;
46230;SDS011;31949;51.404;-0.038;2022-12-18T02:42:01;29.02;;;13.85;;
46230;SDS011;31949;51.404;-0.038;2022-12-18T02:44:34;28.42;;;14.00;;
46230;SDS011;31949;51.404;-0.038;2022-12-18T02:47:10;28.50;;;15.60;;
46230;SDS011;31949;51.404;-0.038;2022-12-18T02:58:33;27.63;;;14.18;;
46230;SDS011;31949;51.404;-0.038;2022-12-18T03:04:22;28.55;;;12.35;;
46230;SDS011;31949;51.404;-0.038;2022-12-18T03:06:54;27.48;;;13.65;;
46230;SDS011;31949;51.404;-0.038;2022-12-18T03:12:01;26.52;;;13.30;;
46230;SDS011;31949;51.404;-0.038;2022-12-18T03:15:10;32.15;;;13.95;;
46230;SDS011;31949;51.404;-0.038;2022-12-18T03:17:48;24.75;;;13.60;;
46230;SDS011;31949;51.404;-0.038;2022-12-18T03:20:31;26.95;;;12.30;;
46230;SDS011;31949;51.404;-0.038;2022-12-18T03:23:04;21.65;;;11.43;;
46230;SDS011;31949;51.404;-0.038;2022-12-18T03:25:39;26.92;;;12.82;;
46230;SDS011;31949;51.404;-0.038;2022-12-18T03:28:10;29.30;;;13.82;;
46230;SDS011;31949;51.404;-0.038;2022-12-18T03:30:41;23.63;;;11.95;;
46230;SDS011;31949;51.404;-0.038;2022-12-18T03:33:31;21.88;;;10.25;;
46230;SDS011;31949;51.404;-0.038;2022-12-18T03:36:06;23.05;;;12.48;;
46230;SDS011;31949;51.404;-0.038;2022-12-18T03:38:33;24.17;;;12.35;;
46230;SDS011;31949;51.404;-0.038;2022-12-18T03:49:25;25.25;;;11.52;;
46230;SDS011;31949;51.404;-0.038;2022-12-18T03:51:58;26.73;;;13.07;;
46230;SDS011;31949;51.404;-0.038;2022-12-18T03:54:32;23.33;;;11.73;;
46230;SDS011;31949;51.404;-0.038;2022-12-18T03:57:18;26.77;;;14.05;;
46230;SDS011;31949;51.404;-0.038;2022-12-18T03:59:53;21.98;;;11.15;;
46230;SDS011;31949;51.404;-0.038;2022-12-18T04:02:28;26.30;;;11.73;;
46230;SDS011;31949;51.404;-0.038;2022-12-18T04:05:00;21.47;;;11.63;;
46230;SDS011;31949;51.404;-0.038;2022-12-18T04:07:33;23.63;;;10.98;;
46230;SDS011;31949;51.404;-0.038;2022-12-18T04:10:01;23.33;;;13.07;;
46230;SDS011;31949;51.404;-0.038;2022-12-18T04:12:30;26.73;;;12.50;;
46230;SDS011;31949;51.404;-0.038;2022-12-18T04:14:57;27.00;;;12.95;;
46230;SDS011;31949;51.404;-0.038;2022-12-18T04:17:25;31.17;;;14.43;;
46230;SDS011;31949;51.404;-0.038;2022-12-18T04:19:52;26.05;;;12.95;;
46230;SDS011;31949;51.404;-0.038;2022-12-18T04:22:19;23.83;;;11.88;;
46230;SDS011;31949;51.404;-0.038;2022-12-18T04:24:51;24.80;;;12.70;;
46230;SDS011;31949;51.404;-0.038;2022-12-18T04:27:27;20.73;;;10.45;;
46230;SDS011;31949;51.404;-0.038;2022-12-18T04:29:58;21.95;;;11.60;;
46230;SDS011;31949;51.404;-0.038;2022-12-18T04:32:25;26.42;;;14.25;;
46230;SDS011;31949;51.404;-0.038;2022-12-18T04:34:52;21.52;;;11.55;;
46230;SDS011;31949;51.404;-0.038;2022-12-18T04:37:20;23.92;;;12.88;;
46230;SDS011;31949;51.404;-0.038;2022-12-18T04:39:48;27.27;;;13.73;;
46230;SDS011;31949;51.404;-0.038;2022-12-18T04:42:23;24.30;;;11.50;;
46230;SDS011;31949;51.404;-0.038;2022-12-18T04:44:50;21.30;;;11.32;;
46230;SDS011;31949;51.404;-0.038;2022-12-18T04:47:17;24.10;;;11.93;;
46230;SDS011;31949;51.404;-0.038;2022-12-18T04:49:44;24.17;;;11.55;;
46230;SDS011;31949;51.404;-0.038;2022-12-18T04:52:11;24.70;;;12.52;;
46230;SDS011;31949;51.404;-0.038;2022-12-18T04:54:38;23.25;;;12.15;;
46230;SDS011;31949;51.404;-0.038;2022-12-18T04:57:06;27.55;;;12.88;;
46230;SDS011;31949;51.404;-0.038;2022-12-18T04:59:33;22.02;;;10.93;;
46230;SDS011;31949;51.404;-0.038;2022-12-18T05:02:00;25.63;;;11.98;;
46230;SDS011;31949;51.404;-0.038;2022-12-18T05:04:27;30.27;;;14.32;;
46230;SDS011;31949;51.404;-0.038;2022-12-18T05:06:54;24.63;;;12.40;;
46230;SDS011;31949;51.404;-0.038;2022-12-18T05:09:21;28.23;;;12.70;;
46230;SDS011;31949;51.404;-0.038;2022-12-18T05:11:49;20.83;;;12.02;;
46230;SDS011;31949;51.404;-0.038;2022-12-18T05:14:16;29.75;;;12.07;;
46230;SDS011;31949;51.404;-0.038;2022-12-18T05:16:43;25.40;;;12.27;;
46230;SDS011;31949;51.404;-0.038;2022-12-18T05:19:11;24.50;;;11.30;;
46230;SDS011;31949;51.404;-0.038;2022-12-18T05:21:38;21.80;;;12.68;;
46230;SDS011;31949;51.404;-0.038;2022-12-18T05:24:06;19.30;;;11.38;;
46230;SDS011;31949;51.404;-0.038;2022-12-18T05:26:33;28.35;;;12.93;;
46230;SDS011;31949;51.404;-0.038;2022-12-18T05:29:00;25.52;;;13.85;;
46230;SDS011;31949;51.404;-0.038;2022-12-18T05:31:27;23.73;;;11.70;;
46230;SDS011;31949;51.404;-0.038;2022-12-18T05:33:57;24.48;;;12.10;;
46230;SDS011;31949;51.404;-0.038;2022-12-18T05:36:25;21.35;;;11.38;;
46230;SDS011;31949;51.404;-0.038;2022-12-18T05:38:52;26.52;;;15.45;;
46230;SDS011;31949;51.404;-0.038;2022-12-18T05:41:19;23.45;;;13.15;;
46230;SDS011;31949;51.404;-0.038;2022-12-18T05:43:46;23.90;;;12.65;;
46230;SDS011;31949;51.404;-0.038;2022-12-18T05:46:14;24.08;;;12.60;;
46230;SDS011;31949;51.404;-0.038;2022-12-18T05:48:44;28.33;;;14.55;;
46230;SDS011;31949;51.404;-0.038;2022-12-18T05:51:13;28.38;;;14.10;;
46230;SDS011;31949;51.404;-0.038;2022-12-18T05:53:43;26.85;;;13.27;;
46230;SDS011;31949;51.404;-0.038;2022-12-18T05:56:12;24.80;;;13.57;;
46230;SDS011;31949;51.404;-0.038;2022-12-18T05:58:44;26.27;;;14.00;;
46230;SDS011;31949;51.404;-0.038;2022-12-18T06:01:16;24.70;;;13.65;;
46230;SDS011;31949;51.404;-0.038;2022-12-18T06:03:46;29.20;;;15.38;;
46230;SDS011;31949;51.404;-0.038;2022-12-18T06:08:40;27.00;;;15.63;;
46230;SDS011;31949;51.404;-0.038;2022-12-18T06:11:12;26.60;;;13.90;;
46230;SDS011;31949;51.404;-0.038;2022-12-18T06:13:39;27.33;;;13.25;;
46230;SDS011;31949;51.404;-0.038;2022-12-18T06:16:07;29.45;;;14.00;;
46230;SDS011;31949;51.404;-0.038;2022-12-18T06:18:35;28.63;;;15.32;;
46230;SDS011;31949;51.404;-0.038;2022-12-18T06:21:02;29.38;;;15.18;;
46230;SDS011;31949;51.404;-0.038;2022-12-18T06:23:29;31.05;;;16.27;;
46230;SDS011;31949;51.404;-0.038;2022-12-18T06:25:56;30.25;;;15.35;;
46230;SDS011;31949;51.404;-0.038;2022-12-18T06:28:23;27.65;;;14.93;;
46230;SDS011;31949;51.404;-0.038;2022-12-18T06:30:50;28.85;;;13.20;;
46230;SDS011;31949;51.404;-0.038;2022-12-18T06:33:18;25.98;;;14.90;;
46230;SDS011;31949;51.404;-0.038;2022-12-18T06:35:45;27.88;;;14.10;;
46230;SDS011;31949;51.404;-0.038;2022-12-18T06:38:12;30.77;;;17.73;;
46230;SDS011;31949;51.404;-0.038;2022-12-18T06:40:39;25.50;;;14.52;;
46230;SDS011;31949;51.404;-0.038;2022-12-18T06:43:06;25.70;;;14.23;;
46230;SDS011;31949;51.404;-0.038;2022-12-18T06:45:34;25.27;;;13.00;;
46230;SDS011;31949;51.404;-0.038;2022-12-18T06:48:01;26.45;;;13.32;;
46230;SDS011;31949;51.404;-0.038;2022-12-18T06:50:28;32.53;;;14.90;;
46230;SDS011;31949;51.404;-0.038;2022-12-18T06:52:56;25.17;;;14.00;;
46230;SDS011;31949;51.404;-0.038;2022-12-18T06:55:23;27.05;;;14.20;;
46230;SDS011;31949;51.404;-0.038;2022-12-18T06:57:50;23.48;;;12.88;;
46230;SDS011;31949;51.404;-0.038;2022-12-18T07:00:18;26.60;;;14.50;;
46230;SDS011;31949;51.404;-0.038;2022-12-18T07:02:45;22.58;;;11.77;;
46230;SDS011;31949;51.404;-0.038;2022-12-18T07:05:12;25.17;;;13.18;;
46230;SDS011;31949;51.404;-0.038;2022-12-18T07:07:39;28.15;;;14.02;;
46230;SDS011;31949;51.404;-0.038;2022-12-18T07:10:06;23.75;;;13.40;;
46230;SDS011;31949;51.404;-0.038;2022-12-18T07:12:34;23.85;;;11.75;;
46230;SDS011;31949;51.404;-0.038;2022-12-18T07:15:02;23.08;;;13.23;;
46230;SDS011;31949;51.404;-0.038;2022-12-18T07:17:29;26.05;;;15.25;;
46230;SDS011;31949;51.404;-0.038;2022-12-18T07:19:56;24.08;;;12.95;;
46230;SDS011;31949;51.404;-0.038;2022-12-18T07:22:24;31.70;;;14.18;;
46230;SDS011;31949;51.404;-0.038;2022-12-18T07:24:52;24.45;;;13.38;;
46230;SDS011;31949;51.404;-0.038;2022-12-18T07:27:19;24.08;;;12.63;;
46230;SDS011;31949;51.404;-0.038;2022-12-18T07:29:47;28.50;;;14.90;;
46230;SDS011;31949;51.404;-0.038;2022-12-18T07:32:14;22.40;;;12.00;;
46230;SDS011;31949;51.404;-0.038;2022-12-18T07:34:41;22.83;;;12.40;;
46230;SDS011;31949;51.404;-0.038;2022-12-18T07:37:08;28.40;;;13.90;;
46230;SDS011;31949;51.404;-0.038;2022-12-18T07:39:36;27.27;;;13.13;;
46230;SDS011;31949;51.404;-0.038;2022-12-18T07:42:03;23.88;;;14.02;;
46230;SDS011;31949;51.404;-0.038;2022-12-18T07:44:50;28.85;;;13.82;;
46230;SDS011;31949;51.404;-0.038;2022-12-18T07:47:17;26.33;;;14.45;;
46230;SDS011;31949;51.404;-0.038;2022-12-18T07:49:44;22.48;;;12.00;;
46230;SDS011;31949;51.404;-0.038;2022-12-18T07:52:11;28.48;;;15.98;;
46230;SDS011;31949;51.404;-0.038;2022-12-18T07:54:38;25.10;;;14.35;;
46230;SDS011;31949;51.404;-0.038;2022-12-18T07:57:07;23.42;;;14.02;;
46230;SDS011;31949;51.404;-0.038;2022-12-18T07:59:52;25.33;;;13.07;;
46230;SDS011;31949;51.404;-0.038;2022-12-18T08:02:19;25.85;;;12.75;;
46230;SDS011;31949;51.404;-0.038;2022-12-18T08:04:47;27.10;;;14.70;;
46230;SDS011;31949;51.404;-0.038;2022-12-18T08:07:14;25.60;;;13.50;;
46230;SDS011;31949;51.404;-0.038;2022-12-18T08:09:41;26.65;;;14.95;;
46230;SDS011;31949;51.404;-0.038;2022-12-18T08:12:08;28.40;;;13.55;;
46230;SDS011;31949;51.404;-0.038;2022-12-18T08:14:35;24.80;;;13.60;;
46230;SDS011;31949;51.404;-0.038;2022-12-18T08:17:03;30.83;;;14.65;;
46230;SDS011;31949;51.404;-0.038;2022-12-18T08:19:30;25.13;;;15.00;;
46230;SDS011;31949;51.404;-0.038;2022-12-18T08:21:57;26.85;;;13.95;;
46230;SDS011;31949;51.404;-0.038;2022-12-18T08:24:24;24.58;;;12.68;;
46230;SDS011;31949;51.404;-0.038;2022-12-18T08:26:52;26.30;;;13.40;;
46230;SDS011;31949;51.404;-0.038;2022-12-18T08:29:39;24.27;;;13.80;;
46230;SDS011;31949;51.404;-0.038;2022-12-18T08:32:07;27.10;;;12.90;;
46230;SDS011;31949;51.404;-0.038;2022-12-18T08:34:34;24.00;;;12.35;;
46230;SDS011;31949;51.404;-0.038;2022-12-18T08:37:01;27.10;;;15.30;;
46230;SDS011;31949;51.404;-0.038;2022-12-18T08:39:28;23.48;;;13.10;;
46230;SDS011;31949;51.404;-0.038;2022-12-18T08:41:56;32.10;;;16.58;;
46230;SDS011;31949;51.404;-0.038;2022-12-18T08:44:41;24.65;;;13.13;;
46230;SDS011;31949;51.404;-0.038;2022-12-18T08:47:08;27.63;;;15.52;;
46230;SDS011;31949;51.404;-0.038;2022-12-18T08:49:36;26.98;;;13.35;;
46230;SDS011;31949;51.404;-0.038;2022-12-18T08:52:03;26.40;;;13.70;;
46230;SDS011;31949;51.404;-0.038;2022-12-18T08:54:30;27.98;;;14.18;;
46230;SDS011;31949;51.404;-0.038;2022-12-18T08:56:57;26.80;;;15.02;;
46230;SDS011;31949;51.404;-0.038;2022-12-18T08:59:24;23.77;;;13.38;;
46230;SDS011;31949;51.404;-0.038;2022-12-18T09:01:53;24.90;;;14.32;;
46230;SDS011;31949;51.404;-0.038;2022-12-18T09:04:21;26.75;;;13.52;;
46230;SDS011;31949;51.404;-0.038;2022-12-18T09:06:48;24.30;;;13.90;;
46230;SDS011;31949;51.404;-0.038;2022-12-18T09:09:16;22.75;;;12.25;;
46230;SDS011;31949;51.404;-0.038;2022-12-18T09:11:43;22.95;;;14.07;;
46230;SDS011;31949;51.404;-0.038;2022-12-18T09:14:10;22.65;;;12.73;;
46230;SDS011;31949;51.404;-0.038;2022-12-18T09:16:37;23.75;;;13.40;;
46230;SDS011;31949;51.404;-0.038;2022-12-18T09:19:05;26.45;;;14.55;;
46230;SDS011;31949;51.404;-0.038;2022-12-18T09:21:33;25.50;;;14.50;;
46230;SDS011;31949;51.404;-0.038;2022-12-18T09:24:03;30.20;;;17.05;;
46230;SDS011;31949;51.404;-0.038;2022-12-18T09:26:34;31.77;;;17.52;;
46230;SDS011;31949;51.404;-0.038;2022-12-18T09:29:02;31.42;;;18.40;;
46230;SDS011;31949;51.404;-0.038;2022-12-18T09:31:29;30.40;;;14.68;;
46230;SDS011;31949;51.404;-0.038;2022-12-18T09:33:56;25.77;;;13.48;;
46230;SDS011;31949;51.404;-0.038;2022-12-18T09:36:23;28.05;;;15.35;;
46230;SDS011;31949;51.404;-0.038;2022-12-18T09:38:51;25.48;;;14.55;;
46230;SDS011;31949;51.404;-0.038;2022-12-18T09:44:27;22.58;;;13.05;;
46230;SDS011;31949;51.404;-0.038;2022-12-18T09:47:18;21.52;;;12.80;;
46230;SDS011;31949;51.404;-0.038;2022-12-18T09:49:53;20.30;;;12.07;;
46230;SDS011;31949;51.404;-0.038;2022-12-18T09:55:00;20.23;;;12.10;;
46230;SDS011;31949;51.404;-0.038;2022-12-18T09:57:45;21.75;;;12.40;;
46230;SDS011;31949;51.404;-0.038;2022-12-18T10:02:45;26.27;;;14.27;;
46230;SDS011;31949;51.404;-0.038;2022-12-18T10:05:15;28.60;;;13.45;;
46230;SDS011;31949;51.404;-0.038;2022-12-18T10:07:47;19.45;;;11.68;;
46230;SDS011;31949;51.404;-0.038;2022-12-18T10:10:19;22.65;;;12.02;;
46230;SDS011;31949;51.404;-0.038;2022-12-18T10:12:56;19.90;;;11.80;;
46230;SDS011;31949;51.404;-0.038;2022-12-18T10:15:47;19.17;;;11.00;;
46230;SDS011;31949;51.404;-0.038;2022-12-18T10:22:01;23.45;;;12.70;;
46230;SDS011;31949;51.404;-0.038;2022-12-18T10:27:17;20.15;;;11.43;;
46230;SDS011;31949;51.404;-0.038;2022-12-18T10:29:46;23.52;;;13.90;;
46230;SDS011;31949;51.404;-0.038;2022-12-18T10:32:14;23.15;;;12.40;;
46230;SDS011;31949;51.404;-0.038;2022-12-18T10:34:45;22.23;;;12.88;;
46230;SDS011;31949;51.404;-0.038;2022-12-18T10:37:26;20.70;;;11.40;;
46230;SDS011;31949;51.404;-0.038;2022-12-18T10:40:08;21.42;;;12.02;;
46230;SDS011;31949;51.404;-0.038;2022-12-18T10:42:47;23.80;;;12.73;;
46230;SDS011;31949;51.404;-0.038;2022-12-18T10:45:39;19.35;;;11.40;;
46230;SDS011;31949;51.404;-0.038;2022-12-18T10:48:19;22.08;;;12.48;;
46230;SDS011;31949;51.404;-0.038;2022-12-18T10:50:49;18.85;;;12.20;;
46230;SDS011;31949;51.404;-0.038;2022-12-18T10:53:38;23.35;;;12.55;;
46230;SDS011;31949;51.404;-0.038;2022-12-18T10:56:08;16.83;;;10.63;;
46230;SDS011;31949;51.404;-0.038;2022-12-18T10:58:36;18.50;;;13.07;;
46230;SDS011;31949;51.404;-0.038;2022-12-18T11:01:13;25.08;;;13.88;;
46230;SDS011;31949;51.404;-0.038;2022-12-18T11:03:44;19.40;;;12.52;;
46230;SDS011;31949;51.404;-0.038;2022-12-18T11:06:20;22.95;;;13.82;;
46230;SDS011;31949;51.404;-0.038;2022-12-18T11:09:03;23.63;;;14.07;;
46230;SDS011;31949;51.404;-0.038;2022-12-18T11:11:52;24.33;;;13.40;;
46230;SDS011;31949;51.404;-0.038;2022-12-18T11:16:57;20.02;;;12.88;;
46230;SDS011;31949;51.404;-0.038;2022-12-18T11:19:51;19.27;;;12.57;;
46230;SDS011;31949;51.404;-0.038;2022-12-18T11:22:21;19.63;;;13.25;;
46230;SDS011;31949;51.404;-0.038;2022-12-18T11:28:05;21.20;;;13.25;;
46230;SDS011;31949;51.404;-0.038;2022-12-18T11:31:35;25.15;;;14.15;;
46230;SDS011;31949;51.404;-0.038;2022-12-18T11:33:55;19.83;;;13.50;;
46230;SDS011;31949;51.404;-0.038;2022-12-18T11:36:55;25.42;;;14.88;;
46230;SDS011;31949;51.404;-0.038;2022-12-18T11:40:10;24.90;;;15.02;;
46230;SDS011;31949;51.404;-0.038;2022-12-18T11:42:20;26.40;;;15.90;;
46230;SDS011;31949;51.404;-0.038;2022-12-18T11:44:55;24.88;;;15.65;;
46230;SDS011;31949;51.404;-0.038;2022-12-18T11:47:39;26.15;;;15.70;;
46230;SDS011;31949;51.404;-0.038;2022-12-18T11:51:01;24.58;;;15.60;;
46230;SDS011;31949;51.404;-0.038;2022-12-18T11:53:22;25.35;;;15.63;;
46230;SDS011;31949;51.404;-0.038;2022-12-18T12:01:34;23.23;;;13.35;;
46230;SDS011;31949;51.404;-0.038;2022-12-18T12:04:28;19.70;;;14.23;;
46230;SDS011;31949;51.404;-0.038;2022-12-18T12:09:52;26.65;;;17.17;;
46230;SDS011;31949;51.404;-0.038;2022-12-18T12:26:18;21.38;;;14.07;;
46230;SDS011;31949;51.404;-0.038;2022-12-18T12:40:04;24.05;;;14.48;;
46230;SDS011;31949;51.404;-0.038;2022-12-18T12:42:56;22.83;;;14.40;;
46230;SDS011;31949;51.404;-0.038;2022-12-18T12:45:42;27.52;;;16.88;;
46230;SDS011;31949;51.404;-0.038;2022-12-18T12:51:02;26.98;;;14.68;;
46230;SDS011;31949;51.404;-0.038;2022-12-18T12:53:37;21.65;;;14.43;;
46230;SDS011;31949;51.404;-0.038;2022-12-18T12:56:07;22.60;;;15.35;;
46230;SDS011;31949;51.404;-0.038;2022-12-18T13:01:17;25.83;;;14.65;;
46230;SDS011;31949;51.404;-0.038;2022-12-18T13:09:31;21.50;;;12.55;;
46230;SDS011;31949;51.404;-0.038;2022-12-18T13:12:03;24.55;;;14.50;;
46230;SDS011;31949;51.404;-0.038;2022-12-18T13:14:54;21.08;;;12.80;;
46230;SDS011;31949;51.404;-0.038;2022-12-18T13:17:48;18.95;;;12.88;;
46230;SDS011;31949;51.404;-0.038;2022-12-18T13:20:32;21.13;;;14.25;;
46230;SDS011;31949;51.404;-0.038;2022-12-18T13:23:18;19.00;;;13.68;;
46230;SDS011;31949;51.404;-0.038;2022-12-18T13:25:52;19.70;;;11.95;;
46230;SDS011;31949;51.404;-0.038;2022-12-18T13:29:09;17.83;;;12.05;;
46230;SDS011;31949;51.404;-0.038;2022-12-18T13:34:18;21.10;;;12.25;;
46230;SDS011;31949;51.404;-0.038;2022-12-18T13:36:54;21.38;;;12.73;;
46230;SDS011;31949;51.404;-0.038;2022-12-18T13:39:25;16.02;;;11.48;;
46230;SDS011;31949;51.404;-0.038;2022-12-18T13:44:35;22.00;;;13.52;;
46230;SDS011;31949;51.404;-0.038;2022-12-18T13:49:57;14.32;;;9.48;;
46230;SDS011;31949;51.404;-0.038;2022-12-18T13:52:26;18.40;;;11.98;;
46230;SDS011;31949;51.404;-0.038;2022-12-18T13:55:01;19.17;;;10.80;;
46230;SDS011;31949;51.404;-0.038;2022-12-18T13:57:34;18.92;;;10.77;;
46230;SDS011;31949;51.404;-0.038;2022-12-18T14:03:15;14.60;;;9.88;;
46230;SDS011;31949;51.404;-0.038;2022-12-18T14:05:56;14.20;;;9.30;;
46230;SDS011;31949;51.404;-0.038;2022-12-18T14:08:30;13.73;;;9.52;;
46230;SDS011;31949;51.404;-0.038;2022-12-18T14:11:01;14.73;;;10.43;;
46230;SDS011;31949;51.404;-0.038;2022-12-18T14:13:36;16.58;;;10.43;;
46230;SDS011;31949;51.404;-0.038;2022-12-18T14:16:06;14.73;;;9.82;;
46230;SDS011;31949;51.404;-0.038;2022-12-18T14:21:05;14.43;;;9.35;;
46230;SDS011;31949;51.404;-0.038;2022-12-18T14:23:34;12.68;;;9.32;;
46230;SDS011;31949;51.404;-0.038;2022-12-18T14:28:57;13.63;;;9.23;;
46230;SDS011;31949;51.404;-0.038;2022-12-18T14:31:28;12.82;;;8.32;;
46230;SDS011;31949;51.404;-0.038;2022-12-18T14:33:57;11.90;;;8.68;;
46230;SDS011;31949;51.404;-0.038;2022-12-18T14:36:25;13.15;;;9.13;;
46230;SDS011;31949;51.404;-0.038;2022-12-18T14:38:54;11.05;;;8.07;;
46230;SDS011;31949;51.404;-0.038;2022-12-18T14:41:24;11.45;;;8.80;;
46230;SDS011;31949;51.404;-0.038;2022-12-18T14:43:52;10.35;;;7.70;;
46230;SDS011;31949;51.404;-0.038;2022-12-18T14:48:54;13.55;;;8.68;;
46230;SDS011;31949;51.404;-0.038;2022-12-18T14:51:23;14.43;;;8.45;;
46230;SDS011;31949;51.404;-0.038;2022-12-18T14:53:57;14.43;;;8.88;;
46230;SDS011;31949;51.404;-0.038;2022-12-18T14:56:36;13.55;;;8.27;;
46230;SDS011;31949;51.404;-0.038;2022-12-18T14:59:13;11.48;;;8.32;;
46230;SDS011;31949;51.404;-0.038;2022-12-18T15:04:27;11.55;;;8.02;;
46230;SDS011;31949;51.404;-0.038;2022-12-18T15:09:44;11.75;;;7.60;;
46230;SDS011;31949;51.404;-0.038;2022-12-18T15:13:06;11.80;;;8.15;;
46230;SDS011;31949;51.404;-0.038;2022-12-18T15:26:11;12.07;;;6.82;;
46230;SDS011;31949;51.404;-0.038;2022-12-18T15:28:56;9.00;;;6.72;;
46230;SDS011;31949;51.404;-0.038;2022-12-18T15:31:32;9.00;;;6.82;;
46230;SDS011;31949;51.404;-0.038;2022-12-18T15:36:34;10.43;;;7.40;;
46230;SDS011;31949;51.404;-0.038;2022-12-18T15:39:03;10.95;;;7.57;;
46230;SDS011;31949;51.404;-0.038;2022-12-18T15:41:33;10.80;;;7.10;;
46230;SDS011;31949;51.404;-0.038;2022-12-18T15:44:02;11.52;;;6.57;;
46230;SDS011;31949;51.404;-0.038;2022-12-18T15:46:47;9.25;;;6.07;;
46230;SDS011;31949;51.404;-0.038;2022-12-18T15:49:15;12.35;;;6.93;;
46230;SDS011;31949;51.404;-0.038;2022-12-18T15:51:42;9.65;;;6.90;;
46230;SDS011;31949;51.404;-0.038;2022-12-18T15:54:11;11.25;;;7.32;;
46230;SDS011;31949;51.404;-0.038;2022-12-18T15:56:42;9.45;;;6.28;;
46230;SDS011;31949;51.404;-0.038;2022-12-18T15:59:28;7.82;;;5.45;;
46230;SDS011;31949;51.404;-0.038;2022-12-18T16:01:56;9.52;;;5.70;;
46230;SDS011;31949;51.404;-0.038;2022-12-18T16:04:23;7.13;;;5.68;;
46230;SDS011;31949;51.404;-0.038;2022-12-18T16:06:51;6.70;;;5.60;;
46230;SDS011;31949;51.404;-0.038;2022-12-18T16:09:39;5.65;;;4.50;;
46230;SDS011;31949;51.404;-0.038;2022-12-18T16:12:06;6.57;;;5.05;;
46230;SDS011;31949;51.404;-0.038;2022-12-18T16:14:43;6.72;;;5.68;;
46230;SDS011;31949;51.404;-0.038;2022-12-18T16:17:11;6.93;;;5.00;;
46230;SDS011;31949;51.404;-0.038;2022-12-18T16:19:39;5.45;;;4.35;;
46230;SDS011;31949;51.404;-0.038;2022-12-18T16:22:08;6.15;;;4.80;;
46230;SDS011;31949;51.404;-0.038;2022-12-18T16:24:47;5.63;;;4.13;;
46230;SDS011;31949;51.404;-0.038;2022-12-18T16:27:15;4.25;;;3.47;;
46230;SDS011;31949;51.404;-0.038;2022-12-18T16:29:43;5.43;;;3.95;;
46230;SDS011;31949;51.404;-0.038;2022-12-18T16:32:14;4.78;;;3.63;;
46230;SDS011;31949;51.404;-0.038;2022-12-18T16:34:43;4.47;;;3.50;;
46230;SDS011;31949;51.404;-0.038;2022-12-18T16:37:11;5.20;;;3.10;;
46230;SDS011;31949;51.404;-0.038;2022-12-18T16:39:40;6.15;;;3.88;;
46230;SDS011;31949;51.404;-0.038;2022-12-18T16:42:18;4.47;;;3.28;;
46230;SDS011;31949;51.404;-0.038;2022-12-18T16:44:47;3.63;;;2.95;;
46230;SDS011;31949;51.404;-0.038;2022-12-18T16:47:15;5.28;;;2.38;;
46230;SDS011;31949;51.404;-0.038;2022-12-18T16:49:43;5.25;;;3.45;;
46230;SDS011;31949;51.404;-0.038;2022-12-18T16:52:11;5.18;;;3.35;;
46230;SDS011;31949;51.404;-0.038;2022-12-18T16:54:39;3.92;;;3.20;;
46230;SDS011;31949;51.404;-0.038;2022-12-18T16:57:08;3.05;;;2.75;;